createdAt,value
2018-11-07T00:01:33.720Z,52.50
2018-11-07T00:03:59.508Z,52.50
2018-11-07T00:06:25.322Z,52.50
2018-11-07T00:08:51.128Z,52.50
2018-11-07T00:11:16.934Z,52.50
2018-11-07T00:13:42.725Z,52.50
2018-11-07T00:16:08.548Z,52.40
2018-11-07T00:18:34.352Z,53.00
2018-11-07T00:21:00.148Z,52.60
2018-11-07T00:23:25.946Z,52.50
2018-11-07T00:25:51.734Z,52.50
2018-11-07T00:28:17.526Z,52.50
2018-11-07T00:30:43.330Z,52.50
2018-11-07T00:33:09.134Z,52.40
2018-11-07T00:35:34.923Z,52.50
2018-11-07T00:38:00.724Z,52.30
2018-11-07T00:40:26.923Z,52.50
2018-11-07T00:42:52.721Z,52.40
2018-11-07T00:45:18.513Z,52.50
2018-11-07T00:47:44.298Z,52.50
2018-11-07T00:50:10.134Z,52.50
2018-11-07T00:52:35.931Z,52.30
2018-11-07T00:55:01.730Z,52.40
2018-11-07T00:57:27.558Z,52.30
2018-11-07T00:59:53.359Z,52.30
2018-11-07T01:02:19.179Z,52.10
2018-11-07T01:04:44.971Z,52.20
2018-11-07T01:07:10.770Z,52.30
2018-11-07T01:09:36.651Z,52.30
2018-11-07T01:12:02.391Z,52.30
2018-11-07T01:14:28.916Z,52.40
2018-11-07T01:16:54.704Z,52.40
2018-11-07T01:19:20.503Z,52.30
2018-11-07T01:21:46.303Z,52.30
2018-11-07T01:24:12.101Z,52.40
2018-11-07T01:26:37.890Z,52.30
2018-11-07T01:29:03.676Z,52.30
2018-11-07T01:31:29.482Z,52.40
2018-11-07T01:33:55.271Z,52.30
2018-11-07T01:36:21.056Z,52.40
2018-11-07T01:38:46.854Z,52.40
2018-11-07T01:41:12.658Z,52.30
2018-11-07T01:43:38.449Z,52.40
2018-11-07T01:46:04.243Z,52.30
2018-11-07T01:48:30.039Z,52.20
2018-11-07T01:50:56.599Z,52.40
2018-11-07T01:53:22.390Z,52.40
2018-11-07T01:55:48.180Z,52.40
2018-11-07T01:58:13.976Z,52.40
2018-11-07T02:00:39.760Z,52.30
2018-11-07T02:03:05.557Z,52.30
2018-11-07T02:05:31.346Z,52.30
2018-11-07T02:07:57.155Z,52.30
2018-11-07T02:10:22.957Z,52.20
2018-11-07T02:12:48.750Z,52.30
2018-11-07T02:15:14.545Z,52.30
2018-11-07T02:17:40.348Z,52.30
2018-11-07T02:20:06.139Z,52.30
2018-11-07T02:22:31.939Z,52.30
2018-11-07T02:24:57.730Z,52.30
2018-11-07T02:27:23.523Z,52.20
2018-11-07T02:29:50.060Z,52.20
2018-11-07T02:32:15.857Z,52.10
2018-11-07T02:34:41.676Z,52.20
2018-11-07T02:37:07.491Z,52.20
2018-11-07T02:39:33.275Z,52.10
2018-11-07T02:41:59.143Z,52.20
2018-11-07T02:44:24.881Z,52.20
2018-11-07T02:46:50.676Z,52.10
2018-11-07T02:49:16.464Z,52.10
2018-11-07T02:51:42.259Z,52.10
2018-11-07T02:54:08.052Z,52.10
2018-11-07T02:56:33.855Z,52.10
2018-11-07T02:58:59.652Z,51.80
2018-11-07T03:01:25.553Z,51.80
2018-11-07T03:03:51.268Z,51.90
2018-11-07T03:06:17.080Z,52.00
2018-11-07T03:08:42.876Z,51.90
2018-11-07T03:11:08.708Z,51.80
2018-11-07T03:13:34.512Z,51.90
2018-11-07T03:16:00.306Z,52.00
2018-11-07T03:18:26.105Z,52.10
2018-11-07T03:20:51.903Z,52.10
2018-11-07T03:23:17.702Z,52.10
2018-11-07T03:25:44.247Z,52.10
2018-11-07T03:28:10.044Z,52.10
2018-11-07T03:30:35.843Z,52.20
2018-11-07T03:33:01.645Z,52.30
2018-11-07T03:35:27.437Z,52.30
2018-11-07T03:37:53.227Z,52.20
2018-11-07T03:40:19.016Z,52.20
2018-11-07T03:42:44.815Z,52.10
2018-11-07T03:45:10.599Z,52.10
2018-11-07T03:47:36.397Z,52.00
2018-11-07T03:50:02.200Z,52.10
2018-11-07T03:52:28.014Z,52.10
2018-11-07T03:54:53.799Z,52.50
2018-11-07T03:57:19.622Z,52.00
2018-11-07T03:59:45.407Z,52.00
2018-11-07T04:02:11.219Z,51.90
2018-11-07T04:04:37.008Z,51.90
2018-11-07T04:07:02.823Z,51.90
2018-11-07T04:09:28.615Z,52.00
2018-11-07T04:11:54.415Z,52.10
2018-11-07T04:14:20.202Z,52.00
2018-11-07T04:16:45.995Z,52.00
2018-11-07T04:19:11.783Z,51.80
2018-11-07T04:21:37.569Z,51.90
2018-11-07T04:24:03.371Z,52.00
2018-11-07T04:26:29.174Z,51.90
2018-11-07T04:28:54.961Z,51.90
2018-11-07T04:31:20.759Z,51.80
2018-11-07T04:33:46.547Z,51.90
2018-11-07T04:36:12.343Z,51.90
2018-11-07T04:38:38.141Z,51.90
2018-11-07T04:41:03.940Z,52.00
2018-11-07T04:43:29.737Z,52.10
2018-11-07T04:45:55.537Z,52.00
2018-11-07T04:48:21.352Z,52.00
2018-11-07T04:50:47.170Z,51.90
2018-11-07T04:53:12.964Z,51.90
2018-11-07T04:55:38.755Z,51.90
2018-11-07T04:58:04.545Z,51.90
2018-11-07T05:00:31.090Z,51.90
2018-11-07T05:02:56.882Z,51.90
2018-11-07T05:05:22.682Z,51.90
2018-11-07T05:07:48.519Z,51.80
2018-11-07T05:10:14.297Z,51.80
2018-11-07T05:12:40.102Z,51.90
2018-11-07T05:15:05.895Z,51.80
2018-11-07T05:17:31.689Z,51.90
2018-11-07T05:19:57.491Z,51.90
2018-11-07T05:22:23.293Z,51.90
2018-11-07T05:24:49.101Z,51.90
2018-11-07T05:27:14.924Z,51.90
2018-11-07T05:29:40.736Z,51.90
2018-11-07T05:32:07.346Z,51.90
2018-11-07T05:34:33.113Z,51.80
2018-11-07T05:36:58.906Z,51.80
2018-11-07T05:39:24.704Z,51.70
2018-11-07T05:41:50.500Z,51.70
2018-11-07T05:44:16.295Z,51.80
2018-11-07T05:46:42.827Z,51.90
2018-11-07T05:49:08.694Z,51.90
2018-11-07T05:51:34.441Z,51.90
2018-11-07T05:54:00.236Z,52.00
2018-11-07T05:56:26.027Z,51.90
2018-11-07T05:58:51.812Z,51.90
2018-11-07T06:01:17.612Z,51.80
2018-11-07T06:03:43.402Z,51.70
2018-11-07T06:06:09.182Z,51.80
2018-11-07T06:08:35.054Z,51.80
2018-11-07T06:11:00.862Z,51.80
2018-11-07T06:13:26.647Z,51.70
2018-11-07T06:15:52.434Z,51.70
2018-11-07T06:18:18.229Z,51.80
2018-11-07T06:20:44.039Z,51.80
2018-11-07T06:23:09.833Z,51.80
2018-11-07T06:25:35.646Z,51.90
2018-11-07T06:28:01.431Z,51.80
2018-11-07T06:30:27.220Z,51.80
2018-11-07T06:32:53.021Z,51.70
2018-11-07T06:35:19.563Z,51.70
2018-11-07T06:37:45.358Z,51.70
2018-11-07T06:40:11.156Z,51.60
2018-11-07T06:42:36.953Z,51.60
2018-11-07T06:45:02.746Z,51.60
2018-11-07T06:47:28.539Z,51.70
2018-11-07T06:49:54.328Z,51.60
2018-11-07T06:52:20.127Z,51.60
2018-11-07T06:54:45.920Z,51.60
2018-11-07T06:57:11.710Z,51.60
2018-11-07T06:59:37.498Z,51.60
2018-11-07T07:02:03.307Z,51.50
2018-11-07T07:04:29.095Z,51.50
2018-11-07T07:06:54.892Z,51.60
2018-11-07T07:09:20.676Z,51.50
2018-11-07T07:11:47.215Z,51.50
2018-11-07T07:14:13.006Z,51.50
2018-11-07T07:16:38.793Z,51.60
2018-11-07T07:19:04.589Z,51.60
2018-11-07T07:21:30.384Z,51.60
2018-11-07T07:23:56.172Z,51.50
2018-11-07T07:26:21.964Z,51.50
2018-11-07T07:28:47.755Z,51.50
2018-11-07T07:31:13.560Z,51.50
2018-11-07T07:33:39.412Z,52.00
2018-11-07T07:36:05.187Z,51.50
2018-11-07T07:38:30.979Z,51.40
2018-11-07T07:40:56.775Z,51.40
2018-11-07T07:43:22.571Z,51.50
2018-11-07T07:45:48.386Z,51.50
2018-11-07T07:48:14.175Z,51.40
2018-11-07T07:50:39.963Z,51.30
2018-11-07T07:53:06.545Z,51.30
2018-11-07T07:55:32.316Z,51.30
2018-11-07T07:57:58.115Z,51.30
2018-11-07T08:00:23.916Z,51.30
2018-11-07T08:02:49.698Z,51.30
2018-11-07T08:05:15.494Z,51.30
2018-11-07T08:07:41.283Z,51.50
2018-11-07T08:10:07.079Z,51.20
2018-11-07T08:12:32.868Z,51.10
2018-11-07T08:14:58.667Z,51.30
2018-11-07T08:17:24.461Z,51.20
2018-11-07T08:19:50.256Z,51.30
2018-11-07T08:22:16.053Z,51.30
2018-11-07T08:24:41.852Z,51.30
2018-11-07T08:27:07.636Z,51.30
2018-11-07T08:29:33.449Z,51.50
2018-11-07T08:31:59.237Z,51.50
2018-11-07T08:34:25.040Z,51.50
2018-11-07T08:36:50.836Z,51.50
2018-11-07T08:39:16.644Z,51.50
2018-11-07T08:41:42.445Z,51.50
2018-11-07T08:44:08.259Z,51.50
2018-11-07T08:46:34.052Z,51.50
2018-11-07T08:48:59.839Z,51.50
2018-11-07T08:51:25.634Z,51.50
2018-11-07T08:53:51.429Z,51.60
2018-11-07T08:56:17.219Z,51.50
2018-11-07T08:58:43.008Z,51.50
2018-11-07T09:01:08.875Z,51.50
2018-11-07T09:03:34.625Z,51.40
2018-11-07T09:06:00.419Z,51.50
2018-11-07T09:08:26.212Z,51.40
2018-11-07T09:10:51.996Z,51.40
2018-11-07T09:13:17.804Z,51.50
2018-11-07T09:15:43.612Z,51.50
2018-11-07T09:18:09.408Z,51.50
2018-11-07T09:20:35.224Z,51.50
2018-11-07T09:23:01.014Z,52.00
2018-11-07T09:25:27.563Z,51.50
2018-11-07T09:27:53.358Z,51.50
2018-11-07T09:30:19.145Z,51.50
2018-11-07T09:32:44.930Z,51.40
2018-11-07T09:35:10.727Z,51.40
2018-11-07T09:37:36.523Z,51.40
2018-11-07T09:40:02.360Z,51.50
2018-11-07T09:42:28.146Z,51.50
2018-11-07T09:44:53.945Z,51.50
2018-11-07T09:47:19.759Z,51.50
2018-11-07T09:49:45.580Z,51.50
2018-11-07T09:52:11.380Z,51.50
2018-11-07T09:54:37.178Z,51.50
2018-11-07T09:57:02.971Z,51.70
2018-11-07T09:59:32.773Z,51.60
2018-11-07T10:01:58.544Z,51.60
2018-11-07T10:04:24.346Z,51.70
2018-11-07T10:06:50.135Z,51.60
2018-11-07T10:09:15.925Z,51.60
2018-11-07T10:11:41.759Z,51.60
2018-11-07T10:14:07.787Z,51.60
2018-11-07T10:16:33.583Z,51.50
2018-11-07T10:18:59.378Z,51.60
2018-11-07T10:21:25.175Z,51.60
2018-11-07T10:23:50.976Z,51.50
2018-11-07T10:26:20.827Z,51.60
2018-11-07T10:28:46.830Z,51.60
2018-11-07T10:31:12.443Z,51.60
2018-11-07T10:33:38.245Z,51.70
2018-11-07T10:36:04.043Z,51.60
2018-11-07T10:38:29.870Z,51.60
2018-11-07T10:40:55.653Z,51.60
2018-11-07T10:43:21.449Z,51.60
2018-11-07T10:45:47.258Z,51.50
2018-11-07T10:48:13.067Z,51.60
2018-11-07T10:50:38.876Z,51.60
2018-11-07T10:53:04.686Z,51.60
2018-11-07T10:55:30.478Z,51.50
2018-11-07T10:57:56.295Z,51.60
2018-11-07T11:00:22.085Z,51.60
2018-11-07T11:02:47.896Z,51.60
2018-11-07T11:05:13.819Z,51.70
2018-11-07T11:07:39.503Z,51.60
2018-11-07T11:10:05.292Z,51.50
2018-11-07T11:12:31.093Z,51.50
2018-11-07T11:14:56.881Z,51.50
2018-11-07T11:17:22.720Z,51.60
2018-11-07T11:19:48.493Z,51.60
2018-11-07T11:22:14.290Z,51.60
2018-11-07T11:24:40.082Z,51.60
2018-11-07T11:27:05.878Z,51.60
2018-11-07T11:29:31.691Z,51.60
2018-11-07T11:31:57.490Z,51.50
2018-11-07T11:34:23.304Z,51.50
2018-11-07T11:36:49.089Z,51.60
2018-11-07T11:39:15.637Z,51.50
2018-11-07T11:41:41.423Z,51.60
2018-11-07T11:44:07.207Z,51.50
2018-11-07T11:46:33.009Z,51.50
2018-11-07T11:48:58.838Z,51.60
2018-11-07T11:51:24.615Z,51.50
2018-11-07T11:53:50.416Z,51.60
2018-11-07T11:56:16.206Z,51.50
2018-11-07T11:58:42.040Z,51.60
2018-11-07T12:01:07.809Z,51.50
2018-11-07T12:03:33.594Z,51.50
2018-11-07T12:05:59.396Z,51.60
2018-11-07T12:08:25.224Z,51.60
2018-11-07T12:10:50.991Z,51.60
2018-11-07T12:13:16.836Z,51.60
2018-11-07T12:15:42.591Z,51.60
2018-11-07T12:18:08.384Z,51.50
2018-11-07T12:20:34.191Z,51.50
2018-11-07T12:23:00.720Z,51.60
2018-11-07T12:25:26.527Z,51.60
2018-11-07T12:27:52.315Z,51.70
2018-11-07T12:30:18.122Z,51.60
2018-11-07T12:32:43.923Z,51.60
2018-11-07T12:35:09.711Z,51.50
2018-11-07T12:37:35.503Z,51.60
2018-11-07T12:40:01.305Z,51.50
2018-11-07T12:42:27.102Z,51.50
2018-11-07T12:44:53.635Z,51.60
2018-11-07T12:47:19.436Z,51.50
2018-11-07T12:49:45.296Z,51.60
2018-11-07T12:52:11.094Z,51.50
2018-11-07T12:54:36.888Z,51.60
2018-11-07T12:57:02.722Z,51.50
2018-11-07T12:59:28.487Z,51.60
2018-11-07T13:01:54.275Z,51.60
2018-11-07T13:04:20.098Z,51.50
2018-11-07T13:06:45.878Z,51.50
2018-11-07T13:09:11.678Z,51.30
2018-11-07T13:11:37.490Z,51.50
2018-11-07T13:14:03.279Z,51.50
2018-11-07T13:16:29.104Z,51.50
2018-11-07T13:18:54.909Z,51.50
2018-11-07T13:21:20.723Z,51.50
2018-11-07T13:23:46.538Z,51.60
2018-11-07T13:26:12.365Z,51.60
2018-11-07T13:28:38.214Z,51.60
2018-11-07T13:31:03.969Z,52.10
2018-11-07T13:33:29.772Z,51.50
2018-11-07T13:35:55.572Z,51.50
2018-11-07T13:38:21.570Z,51.50
2018-11-07T13:40:47.191Z,51.40
2018-11-07T13:43:13.000Z,51.50
2018-11-07T13:45:38.798Z,51.40
2018-11-07T13:48:04.592Z,51.40
2018-11-07T13:50:30.383Z,51.40
2018-11-07T13:52:56.181Z,51.40
2018-11-07T13:55:21.992Z,51.40
2018-11-07T13:57:47.815Z,51.40
2018-11-07T14:00:13.612Z,51.30
2018-11-07T14:02:39.426Z,51.30
2018-11-07T14:05:05.288Z,51.40
2018-11-07T14:07:31.030Z,51.40
2018-11-07T14:09:56.822Z,51.40
2018-11-07T14:12:22.626Z,51.50
2018-11-07T14:14:48.439Z,51.40
2018-11-07T14:17:14.237Z,51.40
2018-11-07T14:19:40.050Z,51.40
2018-11-07T14:22:05.838Z,51.40
2018-11-07T14:24:32.379Z,51.40
2018-11-07T14:26:58.172Z,51.30
2018-11-07T14:29:23.968Z,51.30
2018-11-07T14:31:49.763Z,51.40
2018-11-07T14:34:15.567Z,51.40
2018-11-07T14:36:41.355Z,51.30
2018-11-07T14:39:07.194Z,51.40
2018-11-07T14:41:32.967Z,51.40
2018-11-07T14:43:58.833Z,51.40
2018-11-07T14:46:24.610Z,51.40
2018-11-07T14:48:50.420Z,51.50
2018-11-07T14:51:16.220Z,51.40
2018-11-07T14:53:42.091Z,51.30
2018-11-07T14:56:07.887Z,51.40
2018-11-07T14:58:33.688Z,51.70
2018-11-07T15:00:59.492Z,51.30
2018-11-07T15:03:25.293Z,51.30
2018-11-07T15:05:51.140Z,51.30
2018-11-07T15:08:16.924Z,51.30
2018-11-07T15:10:42.703Z,51.30
2018-11-07T15:13:08.497Z,51.40
2018-11-07T15:15:34.305Z,51.30
2018-11-07T15:18:00.095Z,51.30
2018-11-07T15:20:25.895Z,51.30
2018-11-07T15:22:51.689Z,51.30
2018-11-07T15:25:18.232Z,51.30
2018-11-07T15:27:44.018Z,51.30
2018-11-07T15:30:09.836Z,51.30
2018-11-07T15:32:35.631Z,51.30
2018-11-07T15:35:01.415Z,51.30
2018-11-07T15:37:27.219Z,51.40
2018-11-07T15:39:53.030Z,51.30
2018-11-07T15:42:18.825Z,51.30
2018-11-07T15:44:44.614Z,51.40
2018-11-07T15:47:10.403Z,51.40
2018-11-07T15:49:36.209Z,51.40
2018-11-07T15:52:02.091Z,51.50
2018-11-07T15:54:27.843Z,51.40
2018-11-07T15:56:53.643Z,51.40
2018-11-07T15:59:19.440Z,51.40
2018-11-07T16:01:45.329Z,51.40
2018-11-07T16:04:11.125Z,51.40
2018-11-07T16:06:36.914Z,51.30
2018-11-07T16:09:02.712Z,51.30
2018-11-07T16:11:28.531Z,51.30
2018-11-07T16:13:54.395Z,51.30
2018-11-07T16:16:20.159Z,51.30
2018-11-07T16:18:45.948Z,51.30
2018-11-07T16:21:11.787Z,51.30
2018-11-07T16:23:37.577Z,51.20
2018-11-07T16:26:03.372Z,51.20
2018-11-07T16:28:29.918Z,51.20
2018-11-07T16:30:55.823Z,51.20
2018-11-07T16:33:22.352Z,51.20
2018-11-07T16:35:48.131Z,51.70
2018-11-07T16:38:13.941Z,51.20
2018-11-07T16:40:39.811Z,51.20
2018-11-07T16:43:05.558Z,51.20
2018-11-07T16:45:31.350Z,51.20
2018-11-07T16:47:57.144Z,51.20
2018-11-07T16:50:22.937Z,51.20
2018-11-07T16:52:48.739Z,51.20
2018-11-07T16:55:14.531Z,51.10
2018-11-07T16:57:40.320Z,51.10
2018-11-07T17:00:06.116Z,51.20
2018-11-07T17:02:31.916Z,51.10
2018-11-07T17:04:57.720Z,51.10
2018-11-07T17:07:23.584Z,51.10
2018-11-07T17:09:49.335Z,51.00
2018-11-07T17:12:15.139Z,51.00
2018-11-07T17:14:41.681Z,51.20
2018-11-07T17:17:07.468Z,51.10
2018-11-07T17:19:33.255Z,51.20
2018-11-07T17:21:59.051Z,51.10
2018-11-07T17:24:24.960Z,51.00
2018-11-07T17:26:50.732Z,51.00
2018-11-07T17:29:16.521Z,50.90
2018-11-07T17:31:42.415Z,51.00
2018-11-07T17:34:08.145Z,51.00
2018-11-07T17:36:33.972Z,51.00
2018-11-07T17:38:59.799Z,51.00
2018-11-07T17:41:25.603Z,51.00
2018-11-07T17:43:51.418Z,51.10
2018-11-07T17:46:17.215Z,51.10
2018-11-07T17:48:43.004Z,51.10
2018-11-07T17:51:08.797Z,51.10
2018-11-07T17:53:34.584Z,51.10
2018-11-07T17:56:00.379Z,51.10
2018-11-07T17:58:26.171Z,51.10
2018-11-07T18:00:51.964Z,51.00
2018-11-07T18:03:17.757Z,51.10
2018-11-07T18:05:43.599Z,51.10
2018-11-07T18:08:09.431Z,51.00
2018-11-07T18:10:35.229Z,51.10
2018-11-07T18:13:01.029Z,51.00
2018-11-07T18:15:26.962Z,51.10
2018-11-07T18:17:52.758Z,51.00
2018-11-07T18:20:18.655Z,51.10
2018-11-07T18:22:44.449Z,51.10
2018-11-07T18:25:10.354Z,51.00
2018-11-07T18:27:36.148Z,51.10
2018-11-07T18:30:02.085Z,51.20
2018-11-07T18:32:28.127Z,51.10
2018-11-07T18:34:54.012Z,51.10
2018-11-07T18:37:19.765Z,51.10
2018-11-07T18:39:45.636Z,51.20
2018-11-07T18:42:11.427Z,51.10
2018-11-07T18:44:37.276Z,51.00
2018-11-07T18:47:03.055Z,51.00
2018-11-07T18:49:28.857Z,51.00
2018-11-07T18:51:54.647Z,51.00
2018-11-07T18:54:20.454Z,51.00
2018-11-07T18:56:46.251Z,51.10
2018-11-07T18:59:12.043Z,51.20
2018-11-07T19:01:37.834Z,51.20
2018-11-07T19:04:04.198Z,51.10
2018-11-07T19:06:30.057Z,51.20
2018-11-07T19:08:55.794Z,51.10
2018-11-07T19:11:21.603Z,51.00
2018-11-07T19:13:47.406Z,51.10
2018-11-07T19:16:13.219Z,51.20
2018-11-07T19:18:39.038Z,51.20
2018-11-07T19:21:04.863Z,51.20
2018-11-07T19:23:30.659Z,51.20
2018-11-07T19:25:56.473Z,51.20
2018-11-07T19:28:22.270Z,51.20
2018-11-07T19:30:48.060Z,51.20
2018-11-07T19:33:13.868Z,51.10
2018-11-07T19:35:39.683Z,51.20
2018-11-07T19:38:05.476Z,51.20
2018-11-07T19:40:31.278Z,51.20
2018-11-07T19:42:57.826Z,51.30
2018-11-07T19:45:23.631Z,51.20
2018-11-07T19:47:49.412Z,51.30
2018-11-07T19:50:15.268Z,51.30
2018-11-07T19:52:41.092Z,51.30
2018-11-07T19:55:06.888Z,51.30
2018-11-07T19:57:32.770Z,51.30
2018-11-07T19:59:58.623Z,51.30
2018-11-07T20:02:24.407Z,51.30
2018-11-07T20:04:50.221Z,51.20
2018-11-07T20:07:16.031Z,51.30
2018-11-07T20:09:41.816Z,51.40
2018-11-07T20:12:07.633Z,51.30
2018-11-07T20:14:33.433Z,51.30
2018-11-07T20:16:59.291Z,51.40
2018-11-07T20:19:25.095Z,51.40
2018-11-07T20:21:51.431Z,51.40
2018-11-07T20:24:17.218Z,51.40
2018-11-07T20:26:43.030Z,51.30
2018-11-07T20:29:08.821Z,51.30
2018-11-07T20:31:34.622Z,51.40
2018-11-07T20:34:00.426Z,51.30
2018-11-07T20:36:26.221Z,51.30
2018-11-07T20:38:52.004Z,51.30
2018-11-07T20:41:17.806Z,51.40
2018-11-07T20:43:43.622Z,51.30
2018-11-07T20:46:09.415Z,51.30
2018-11-07T20:48:35.203Z,51.40
2018-11-07T20:51:00.992Z,51.40
2018-11-07T20:53:26.787Z,51.30
2018-11-07T20:55:52.678Z,51.30
2018-11-07T20:58:18.511Z,51.20
2018-11-07T21:00:44.304Z,51.30
2018-11-07T21:03:10.120Z,51.80
2018-11-07T21:05:35.923Z,51.20
2018-11-07T21:08:01.726Z,51.20
2018-11-07T21:10:27.531Z,51.30
2018-11-07T21:12:53.321Z,51.30
2018-11-07T21:15:19.122Z,51.30
2018-11-07T21:17:44.924Z,51.30
2018-11-07T21:20:10.720Z,51.30
2018-11-07T21:22:36.573Z,51.40
2018-11-07T21:25:02.373Z,51.40
2018-11-07T21:27:28.163Z,51.40
2018-11-07T21:29:53.958Z,51.50
2018-11-07T21:32:19.752Z,51.50
2018-11-07T21:34:45.575Z,51.40
2018-11-07T21:37:11.373Z,51.40
2018-11-07T21:39:37.168Z,51.40
2018-11-07T21:42:02.999Z,51.40
2018-11-07T21:44:29.524Z,51.30
2018-11-07T21:46:55.315Z,51.20
2018-11-07T21:49:21.120Z,51.30
2018-11-07T21:51:46.907Z,51.10
2018-11-07T21:54:12.722Z,50.80
2018-11-07T21:56:38.508Z,51.20
2018-11-07T21:59:04.308Z,51.30
2018-11-07T22:01:30.091Z,51.30
2018-11-07T22:03:55.895Z,51.40
2018-11-07T22:06:21.687Z,51.40
2018-11-07T22:08:47.483Z,51.30
2018-11-07T22:11:13.279Z,51.40
2018-11-07T22:13:39.072Z,51.30
2018-11-07T22:16:04.868Z,51.40
2018-11-07T22:18:30.665Z,51.20
2018-11-07T22:20:57.193Z,51.40
2018-11-07T22:23:22.986Z,51.40
2018-11-07T22:25:48.778Z,51.50
2018-11-07T22:28:14.563Z,51.40
2018-11-07T22:30:40.362Z,51.40
2018-11-07T22:33:06.155Z,51.50
2018-11-07T22:35:31.955Z,51.50
2018-11-07T22:37:57.743Z,51.40
2018-11-07T22:40:23.539Z,51.40
2018-11-07T22:42:49.332Z,51.40
2018-11-07T22:45:15.125Z,51.50
2018-11-07T22:47:40.913Z,51.50
2018-11-07T22:50:06.708Z,51.40
2018-11-07T22:52:33.245Z,51.40
2018-11-07T22:54:59.048Z,51.40
2018-11-07T22:57:24.843Z,51.50
2018-11-07T22:59:50.649Z,51.40
2018-11-07T23:02:16.473Z,51.50
2018-11-07T23:04:42.288Z,51.60
2018-11-07T23:07:08.091Z,51.50
2018-11-07T23:09:33.908Z,51.50
2018-11-07T23:11:59.713Z,51.50
2018-11-07T23:14:25.508Z,51.50
2018-11-07T23:16:51.322Z,51.50
2018-11-07T23:19:17.148Z,51.40
2018-11-07T23:21:42.959Z,51.50
2018-11-07T23:24:08.758Z,51.50
2018-11-07T23:26:34.556Z,51.40
2018-11-07T23:29:00.347Z,51.50
2018-11-07T23:31:26.140Z,51.50
2018-11-07T23:33:51.931Z,51.50
2018-11-07T23:36:17.727Z,51.50
2018-11-07T23:38:43.518Z,51.50
2018-11-07T23:41:09.314Z,51.40
2018-11-07T23:43:35.119Z,51.60
2018-11-07T23:46:01.658Z,51.50
2018-11-07T23:48:27.452Z,51.50
2018-11-07T23:50:53.255Z,51.50
2018-11-07T23:53:19.088Z,51.50
2018-11-07T23:55:44.887Z,51.50
2018-11-07T23:58:10.705Z,51.40
